sensor_id;sensor_type;location;lat;lon;timestamp;P1;durP1;ratioP1;P2;durP2;ratioP2
37907;SDS011;23740;51.550;6.846;2023-06-24T00:02:03;6.13;;;3.85;;
37907;SDS011;23740;51.550;6.846;2023-06-24T00:04:32;6.78;;;4.30;;
37907;SDS011;23740;51.550;6.846;2023-06-24T00:07:00;5.32;;;3.67;;
37907;SDS011;23740;51.550;6.846;2023-06-24T00:09:27;6.63;;;4.35;;
37907;SDS011;23740;51.550;6.846;2023-06-24T00:11:56;5.25;;;4.13;;
37907;SDS011;23740;51.550;6.846;2023-06-24T00:14:26;6.30;;;4.07;;
37907;SDS011;23740;51.550;6.846;2023-06-24T00:16:54;5.22;;;3.47;;
37907;SDS011;23740;51.550;6.846;2023-06-24T00:19:23;7.93;;;4.28;;
37907;SDS011;23740;51.550;6.846;2023-06-24T00:21:53;6.68;;;4.13;;
37907;SDS011;23740;51.550;6.846;2023-06-24T00:24:21;5.32;;;4.18;;
37907;SDS011;23740;51.550;6.846;2023-06-24T00:26:52;7.47;;;4.15;;
37907;SDS011;23740;51.550;6.846;2023-06-24T00:29:19;6.53;;;4.25;;
37907;SDS011;23740;51.550;6.846;2023-06-24T00:31:49;5.63;;;3.85;;
37907;SDS011;23740;51.550;6.846;2023-06-24T00:34:17;4.82;;;4.30;;
37907;SDS011;23740;51.550;6.846;2023-06-24T00:36:46;5.13;;;3.88;;
37907;SDS011;23740;51.550;6.846;2023-06-24T00:39:14;4.97;;;3.58;;
37907;SDS011;23740;51.550;6.846;2023-06-24T00:41:42;9.15;;;4.28;;
37907;SDS011;23740;51.550;6.846;2023-06-24T00:44:10;7.70;;;4.35;;
37907;SDS011;23740;51.550;6.846;2023-06-24T00:46:39;6.88;;;4.63;;
37907;SDS011;23740;51.550;6.846;2023-06-24T00:49:08;5.20;;;4.40;;
37907;SDS011;23740;51.550;6.846;2023-06-24T00:51:39;6.57;;;4.68;;
37907;SDS011;23740;51.550;6.846;2023-06-24T00:54:13;5.95;;;4.40;;
37907;SDS011;23740;51.550;6.846;2023-06-24T00:56:41;5.93;;;4.35;;
37907;SDS011;23740;51.550;6.846;2023-06-24T00:59:09;5.05;;;4.38;;
37907;SDS011;23740;51.550;6.846;2023-06-24T01:01:38;5.35;;;3.95;;
37907;SDS011;23740;51.550;6.846;2023-06-24T01:04:08;5.07;;;3.83;;
37907;SDS011;23740;51.550;6.846;2023-06-24T01:06:36;8.00;;;4.32;;
37907;SDS011;23740;51.550;6.846;2023-06-24T01:09:10;6.22;;;4.18;;
37907;SDS011;23740;51.550;6.846;2023-06-24T01:11:38;6.00;;;4.43;;
37907;SDS011;23740;51.550;6.846;2023-06-24T01:14:06;5.63;;;4.70;;
37907;SDS011;23740;51.550;6.846;2023-06-24T01:16:37;6.40;;;4.07;;
37907;SDS011;23740;51.550;6.846;2023-06-24T01:19:13;7.05;;;4.50;;
37907;SDS011;23740;51.550;6.846;2023-06-24T01:22:06;5.60;;;4.60;;
37907;SDS011;23740;51.550;6.846;2023-06-24T01:24:46;6.75;;;4.22;;
37907;SDS011;23740;51.550;6.846;2023-06-24T01:27:24;5.90;;;4.53;;
37907;SDS011;23740;51.550;6.846;2023-06-24T01:30:19;7.70;;;4.38;;
37907;SDS011;23740;51.550;6.846;2023-06-24T01:32:57;6.75;;;4.43;;
37907;SDS011;23740;51.550;6.846;2023-06-24T01:35:28;5.93;;;4.40;;
37907;SDS011;23740;51.550;6.846;2023-06-24T01:37:58;5.05;;;4.13;;
37907;SDS011;23740;51.550;6.846;2023-06-24T01:40:28;9.60;;;5.20;;
37907;SDS011;23740;51.550;6.846;2023-06-24T01:42:58;7.63;;;5.05;;
37907;SDS011;23740;51.550;6.846;2023-06-24T01:45:28;8.50;;;4.85;;
37907;SDS011;23740;51.550;6.846;2023-06-24T01:47:59;7.00;;;4.80;;
37907;SDS011;23740;51.550;6.846;2023-06-24T01:50:29;7.28;;;5.45;;
37907;SDS011;23740;51.550;6.846;2023-06-24T01:52:58;7.25;;;5.18;;
37907;SDS011;23740;51.550;6.846;2023-06-24T01:55:28;8.95;;;5.78;;
37907;SDS011;23740;51.550;6.846;2023-06-24T01:57:57;8.70;;;6.20;;
37907;SDS011;23740;51.550;6.846;2023-06-24T02:00:27;8.13;;;5.63;;
37907;SDS011;23740;51.550;6.846;2023-06-24T02:02:55;8.02;;;5.95;;
37907;SDS011;23740;51.550;6.846;2023-06-24T02:05:24;8.07;;;5.82;;
37907;SDS011;23740;51.550;6.846;2023-06-24T02:07:53;9.57;;;6.30;;
37907;SDS011;23740;51.550;6.846;2023-06-24T02:10:21;8.27;;;6.18;;
37907;SDS011;23740;51.550;6.846;2023-06-24T02:12:49;8.52;;;5.88;;
37907;SDS011;23740;51.550;6.846;2023-06-24T02:15:18;7.68;;;5.57;;
37907;SDS011;23740;51.550;6.846;2023-06-24T02:17:48;9.48;;;6.15;;
37907;SDS011;23740;51.550;6.846;2023-06-24T02:20:17;6.80;;;5.38;;
37907;SDS011;23740;51.550;6.846;2023-06-24T02:22:46;8.32;;;6.28;;
37907;SDS011;23740;51.550;6.846;2023-06-24T02:25:15;8.52;;;5.57;;
37907;SDS011;23740;51.550;6.846;2023-06-24T02:27:43;8.98;;;5.90;;
37907;SDS011;23740;51.550;6.846;2023-06-24T02:30:11;7.47;;;5.90;;
37907;SDS011;23740;51.550;6.846;2023-06-24T02:32:40;8.43;;;5.90;;
37907;SDS011;23740;51.550;6.846;2023-06-24T02:35:08;7.57;;;5.53;;
37907;SDS011;23740;51.550;6.846;2023-06-24T02:37:36;11.60;;;6.35;;
37907;SDS011;23740;51.550;6.846;2023-06-24T02:40:06;8.15;;;6.50;;
37907;SDS011;23740;51.550;6.846;2023-06-24T02:42:36;7.97;;;6.00;;
37907;SDS011;23740;51.550;6.846;2023-06-24T02:45:04;9.23;;;6.15;;
37907;SDS011;23740;51.550;6.846;2023-06-24T02:47:33;8.48;;;6.15;;
37907;SDS011;23740;51.550;6.846;2023-06-24T02:50:03;9.52;;;6.00;;
37907;SDS011;23740;51.550;6.846;2023-06-24T02:52:33;8.45;;;6.00;;
37907;SDS011;23740;51.550;6.846;2023-06-24T02:55:03;6.28;;;5.05;;
37907;SDS011;23740;51.550;6.846;2023-06-24T02:57:33;8.20;;;5.53;;
37907;SDS011;23740;51.550;6.846;2023-06-24T03:00:03;8.43;;;6.18;;
37907;SDS011;23740;51.550;6.846;2023-06-24T03:02:35;8.43;;;6.20;;
37907;SDS011;23740;51.550;6.846;2023-06-24T03:05:03;9.13;;;5.65;;
37907;SDS011;23740;51.550;6.846;2023-06-24T03:07:32;8.57;;;6.03;;
37907;SDS011;23740;51.550;6.846;2023-06-24T03:10:01;7.50;;;5.70;;
37907;SDS011;23740;51.550;6.846;2023-06-24T03:12:32;8.95;;;6.07;;
37907;SDS011;23740;51.550;6.846;2023-06-24T03:15:00;9.48;;;5.57;;
37907;SDS011;23740;51.550;6.846;2023-06-24T03:17:28;6.78;;;4.97;;
37907;SDS011;23740;51.550;6.846;2023-06-24T03:19:57;7.72;;;5.53;;
37907;SDS011;23740;51.550;6.846;2023-06-24T03:22:24;7.30;;;5.68;;
37907;SDS011;23740;51.550;6.846;2023-06-24T03:24:52;6.57;;;5.25;;
37907;SDS011;23740;51.550;6.846;2023-06-24T03:27:20;5.93;;;5.07;;
37907;SDS011;23740;51.550;6.846;2023-06-24T03:29:49;6.85;;;5.45;;
37907;SDS011;23740;51.550;6.846;2023-06-24T03:32:17;7.88;;;5.75;;
37907;SDS011;23740;51.550;6.846;2023-06-24T03:34:45;6.93;;;5.22;;
37907;SDS011;23740;51.550;6.846;2023-06-24T03:37:13;6.22;;;5.00;;
37907;SDS011;23740;51.550;6.846;2023-06-24T03:39:40;7.18;;;5.15;;
37907;SDS011;23740;51.550;6.846;2023-06-24T03:42:08;6.13;;;4.80;;
37907;SDS011;23740;51.550;6.846;2023-06-24T03:44:36;6.43;;;4.82;;
37907;SDS011;23740;51.550;6.846;2023-06-24T03:47:05;6.07;;;5.00;;
37907;SDS011;23740;51.550;6.846;2023-06-24T03:49:33;7.20;;;5.43;;
37907;SDS011;23740;51.550;6.846;2023-06-24T03:52:01;8.23;;;5.28;;
37907;SDS011;23740;51.550;6.846;2023-06-24T03:54:30;7.18;;;5.53;;
37907;SDS011;23740;51.550;6.846;2023-06-24T03:56:57;7.32;;;5.07;;
37907;SDS011;23740;51.550;6.846;2023-06-24T03:59:25;7.05;;;5.60;;
37907;SDS011;23740;51.550;6.846;2023-06-24T04:01:53;8.25;;;5.03;;
37907;SDS011;23740;51.550;6.846;2023-06-24T04:04:22;6.47;;;5.07;;
37907;SDS011;23740;51.550;6.846;2023-06-24T04:06:50;7.95;;;5.53;;
37907;SDS011;23740;51.550;6.846;2023-06-24T04:09:18;7.95;;;5.70;;
37907;SDS011;23740;51.550;6.846;2023-06-24T04:11:46;7.82;;;5.50;;
37907;SDS011;23740;51.550;6.846;2023-06-24T04:14:14;8.13;;;5.45;;
37907;SDS011;23740;51.550;6.846;2023-06-24T04:16:41;6.93;;;4.68;;
37907;SDS011;23740;51.550;6.846;2023-06-24T04:19:09;7.40;;;5.00;;
37907;SDS011;23740;51.550;6.846;2023-06-24T04:21:39;7.63;;;4.68;;
37907;SDS011;23740;51.550;6.846;2023-06-24T04:24:07;6.68;;;4.40;;
37907;SDS011;23740;51.550;6.846;2023-06-24T04:26:35;6.93;;;4.97;;
37907;SDS011;23740;51.550;6.846;2023-06-24T04:29:03;5.80;;;4.45;;
37907;SDS011;23740;51.550;6.846;2023-06-24T04:31:30;7.05;;;4.38;;
37907;SDS011;23740;51.550;6.846;2023-06-24T04:33:58;7.13;;;4.45;;
37907;SDS011;23740;51.550;6.846;2023-06-24T04:36:26;6.82;;;4.55;;
37907;SDS011;23740;51.550;6.846;2023-06-24T04:38:55;5.80;;;4.70;;
37907;SDS011;23740;51.550;6.846;2023-06-24T04:41:23;7.50;;;5.10;;
37907;SDS011;23740;51.550;6.846;2023-06-24T04:43:51;6.65;;;5.22;;
37907;SDS011;23740;51.550;6.846;2023-06-24T04:46:20;8.52;;;5.57;;
37907;SDS011;23740;51.550;6.846;2023-06-24T04:48:48;6.15;;;4.55;;
37907;SDS011;23740;51.550;6.846;2023-06-24T04:51:16;7.22;;;5.47;;
37907;SDS011;23740;51.550;6.846;2023-06-24T04:53:43;6.53;;;5.30;;
37907;SDS011;23740;51.550;6.846;2023-06-24T04:56:13;7.65;;;5.43;;
37907;SDS011;23740;51.550;6.846;2023-06-24T04:58:40;6.85;;;5.28;;
37907;SDS011;23740;51.550;6.846;2023-06-24T05:01:09;8.68;;;5.38;;
37907;SDS011;23740;51.550;6.846;2023-06-24T05:03:37;9.25;;;6.63;;
37907;SDS011;23740;51.550;6.846;2023-06-24T05:06:05;7.53;;;6.00;;
37907;SDS011;23740;51.550;6.846;2023-06-24T05:08:32;6.47;;;5.43;;
37907;SDS011;23740;51.550;6.846;2023-06-24T05:11:00;8.52;;;6.25;;
37907;SDS011;23740;51.550;6.846;2023-06-24T05:13:29;10.25;;;6.32;;
37907;SDS011;23740;51.550;6.846;2023-06-24T05:15:57;7.88;;;6.07;;
37907;SDS011;23740;51.550;6.846;2023-06-24T05:18:25;8.35;;;6.20;;
37907;SDS011;23740;51.550;6.846;2023-06-24T05:20:53;7.47;;;6.03;;
37907;SDS011;23740;51.550;6.846;2023-06-24T05:23:20;8.15;;;6.00;;
37907;SDS011;23740;51.550;6.846;2023-06-24T05:25:48;7.97;;;6.90;;
37907;SDS011;23740;51.550;6.846;2023-06-24T05:28:16;11.15;;;7.20;;
37907;SDS011;23740;51.550;6.846;2023-06-24T05:30:45;10.13;;;6.80;;
37907;SDS011;23740;51.550;6.846;2023-06-24T05:33:13;8.00;;;6.28;;
37907;SDS011;23740;51.550;6.846;2023-06-24T05:35:42;9.57;;;7.20;;
37907;SDS011;23740;51.550;6.846;2023-06-24T05:38:10;9.27;;;6.63;;
37907;SDS011;23740;51.550;6.846;2023-06-24T05:40:38;11.75;;;6.75;;
37907;SDS011;23740;51.550;6.846;2023-06-24T05:43:05;8.82;;;7.80;;
37907;SDS011;23740;51.550;6.846;2023-06-24T05:45:33;10.20;;;7.50;;
37907;SDS011;23740;51.550;6.846;2023-06-24T05:48:04;9.40;;;7.35;;
37907;SDS011;23740;51.550;6.846;2023-06-24T05:50:32;9.30;;;6.88;;
37907;SDS011;23740;51.550;6.846;2023-06-24T05:53:00;10.43;;;7.38;;
37907;SDS011;23740;51.550;6.846;2023-06-24T05:55:28;10.88;;;8.57;;
37907;SDS011;23740;51.550;6.846;2023-06-24T05:57:55;9.68;;;7.68;;
37907;SDS011;23740;51.550;6.846;2023-06-24T06:00:23;8.75;;;7.35;;
37907;SDS011;23740;51.550;6.846;2023-06-24T06:02:51;11.35;;;8.23;;
37907;SDS011;23740;51.550;6.846;2023-06-24T06:05:21;10.40;;;8.48;;
37907;SDS011;23740;51.550;6.846;2023-06-24T06:07:48;12.70;;;8.45;;
37907;SDS011;23740;51.550;6.846;2023-06-24T06:10:16;10.23;;;7.95;;
37907;SDS011;23740;51.550;6.846;2023-06-24T06:12:44;10.48;;;8.32;;
37907;SDS011;23740;51.550;6.846;2023-06-24T06:15:12;11.82;;;8.13;;
37907;SDS011;23740;51.550;6.846;2023-06-24T06:17:40;9.70;;;8.02;;
37907;SDS011;23740;51.550;6.846;2023-06-24T06:20:08;10.88;;;9.05;;
37907;SDS011;23740;51.550;6.846;2023-06-24T06:22:38;10.68;;;8.80;;
37907;SDS011;23740;51.550;6.846;2023-06-24T06:25:06;11.60;;;8.82;;
37907;SDS011;23740;51.550;6.846;2023-06-24T06:27:34;12.73;;;8.40;;
37907;SDS011;23740;51.550;6.846;2023-06-24T06:30:03;10.65;;;9.13;;
37907;SDS011;23740;51.550;6.846;2023-06-24T06:32:31;10.10;;;8.98;;
37907;SDS011;23740;51.550;6.846;2023-06-24T06:34:59;10.52;;;9.43;;
37907;SDS011;23740;51.550;6.846;2023-06-24T06:37:27;11.70;;;9.52;;
37907;SDS011;23740;51.550;6.846;2023-06-24T06:39:56;10.95;;;9.18;;
37907;SDS011;23740;51.550;6.846;2023-06-24T06:42:24;10.55;;;9.10;;
37907;SDS011;23740;51.550;6.846;2023-06-24T06:44:55;11.38;;;9.43;;
37907;SDS011;23740;51.550;6.846;2023-06-24T06:47:22;11.45;;;9.23;;
37907;SDS011;23740;51.550;6.846;2023-06-24T06:49:51;12.07;;;9.85;;
37907;SDS011;23740;51.550;6.846;2023-06-24T06:52:18;12.20;;;9.02;;
37907;SDS011;23740;51.550;6.846;2023-06-24T06:54:46;11.77;;;9.45;;
37907;SDS011;23740;51.550;6.846;2023-06-24T06:57:16;13.52;;;9.48;;
37907;SDS011;23740;51.550;6.846;2023-06-24T06:59:43;12.23;;;8.90;;
37907;SDS011;23740;51.550;6.846;2023-06-24T07:02:11;13.93;;;10.57;;
37907;SDS011;23740;51.550;6.846;2023-06-24T07:04:39;14.95;;;11.75;;
37907;SDS011;23740;51.550;6.846;2023-06-24T07:07:07;12.95;;;11.15;;
37907;SDS011;23740;51.550;6.846;2023-06-24T07:09:35;13.93;;;10.55;;
37907;SDS011;23740;51.550;6.846;2023-06-24T07:12:06;12.80;;;10.82;;
37907;SDS011;23740;51.550;6.846;2023-06-24T07:14:36;15.73;;;12.13;;
37907;SDS011;23740;51.550;6.846;2023-06-24T07:17:04;14.13;;;11.23;;
37907;SDS011;23740;51.550;6.846;2023-06-24T07:19:35;15.38;;;12.10;;
37907;SDS011;23740;51.550;6.846;2023-06-24T07:22:03;14.63;;;11.40;;
37907;SDS011;23740;51.550;6.846;2023-06-24T07:24:31;16.63;;;11.35;;
37907;SDS011;23740;51.550;6.846;2023-06-24T07:26:59;14.57;;;12.65;;
37907;SDS011;23740;51.550;6.846;2023-06-24T07:29:26;15.88;;;12.75;;
37907;SDS011;23740;51.550;6.846;2023-06-24T07:31:56;13.85;;;12.10;;
37907;SDS011;23740;51.550;6.846;2023-06-24T07:34:23;14.95;;;12.98;;
37907;SDS011;23740;51.550;6.846;2023-06-24T07:36:54;16.33;;;13.55;;
37907;SDS011;23740;51.550;6.846;2023-06-24T07:39:23;19.00;;;13.63;;
37907;SDS011;23740;51.550;6.846;2023-06-24T07:41:51;17.10;;;13.57;;
37907;SDS011;23740;51.550;6.846;2023-06-24T07:44:19;15.98;;;14.35;;
37907;SDS011;23740;51.550;6.846;2023-06-24T07:46:47;17.50;;;15.13;;
37907;SDS011;23740;51.550;6.846;2023-06-24T07:49:18;16.52;;;15.00;;
37907;SDS011;23740;51.550;6.846;2023-06-24T07:51:46;14.82;;;13.40;;
37907;SDS011;23740;51.550;6.846;2023-06-24T07:54:14;16.67;;;14.98;;
37907;SDS011;23740;51.550;6.846;2023-06-24T07:56:42;20.38;;;18.58;;
37907;SDS011;23740;51.550;6.846;2023-06-24T07:59:10;18.85;;;17.20;;
37907;SDS011;23740;51.550;6.846;2023-06-24T08:01:37;23.42;;;21.52;;
37907;SDS011;23740;51.550;6.846;2023-06-24T08:04:05;18.70;;;17.13;;
37907;SDS011;23740;51.550;6.846;2023-06-24T08:06:35;17.63;;;16.13;;
37907;SDS011;23740;51.550;6.846;2023-06-24T08:09:02;17.55;;;15.95;;
37907;SDS011;23740;51.550;6.846;2023-06-24T08:11:30;16.73;;;15.20;;
37907;SDS011;23740;51.550;6.846;2023-06-24T08:13:58;14.55;;;13.10;;
37907;SDS011;23740;51.550;6.846;2023-06-24T08:16:31;16.27;;;14.63;;
37907;SDS011;23740;51.550;6.846;2023-06-24T08:18:59;15.40;;;14.02;;
37907;SDS011;23740;51.550;6.846;2023-06-24T08:21:26;15.50;;;14.20;;
37907;SDS011;23740;51.550;6.846;2023-06-24T08:23:57;16.10;;;14.57;;
37907;SDS011;23740;51.550;6.846;2023-06-24T08:26:25;17.10;;;15.77;;
37907;SDS011;23740;51.550;6.846;2023-06-24T08:28:52;14.00;;;12.88;;
37907;SDS011;23740;51.550;6.846;2023-06-24T08:31:20;15.88;;;14.57;;
37907;SDS011;23740;51.550;6.846;2023-06-24T08:33:51;15.55;;;14.07;;
37907;SDS011;23740;51.550;6.846;2023-06-24T08:36:20;13.00;;;11.90;;
37907;SDS011;23740;51.550;6.846;2023-06-24T08:38:49;17.65;;;16.20;;
37907;SDS011;23740;51.550;6.846;2023-06-24T08:41:18;19.17;;;16.58;;
37907;SDS011;23740;51.550;6.846;2023-06-24T08:43:46;14.35;;;12.95;;
37907;SDS011;23740;51.550;6.846;2023-06-24T08:46:14;10.85;;;9.95;;
37907;SDS011;23740;51.550;6.846;2023-06-24T08:48:44;10.43;;;9.52;;
37907;SDS011;23740;51.550;6.846;2023-06-24T08:51:13;10.88;;;9.98;;
37907;SDS011;23740;51.550;6.846;2023-06-24T08:53:43;9.02;;;8.15;;
37907;SDS011;23740;51.550;6.846;2023-06-24T08:56:11;8.55;;;7.80;;
37907;SDS011;23740;51.550;6.846;2023-06-24T08:58:40;7.68;;;6.97;;
37907;SDS011;23740;51.550;6.846;2023-06-24T09:01:09;8.48;;;7.72;;
37907;SDS011;23740;51.550;6.846;2023-06-24T09:03:36;8.30;;;7.53;;
37907;SDS011;23740;51.550;6.846;2023-06-24T09:06:04;6.70;;;6.07;;
37907;SDS011;23740;51.550;6.846;2023-06-24T09:08:32;7.68;;;6.97;;
37907;SDS011;23740;51.550;6.846;2023-06-24T09:11:02;6.07;;;5.47;;
37907;SDS011;23740;51.550;6.846;2023-06-24T09:13:33;7.45;;;6.75;;
37907;SDS011;23740;51.550;6.846;2023-06-24T09:16:12;6.20;;;5.70;;
37907;SDS011;23740;51.550;6.846;2023-06-24T09:18:41;6.82;;;6.13;;
37907;SDS011;23740;51.550;6.846;2023-06-24T09:21:10;7.10;;;6.47;;
37907;SDS011;23740;51.550;6.846;2023-06-24T09:23:38;5.97;;;5.30;;
37907;SDS011;23740;51.550;6.846;2023-06-24T09:26:09;5.68;;;5.20;;
37907;SDS011;23740;51.550;6.846;2023-06-24T09:28:37;3.75;;;3.45;;
37907;SDS011;23740;51.550;6.846;2023-06-24T09:31:05;4.88;;;4.47;;
37907;SDS011;23740;51.550;6.846;2023-06-24T09:33:46;7.45;;;6.25;;
37907;SDS011;23740;51.550;6.846;2023-06-24T09:36:14;5.82;;;5.22;;
37907;SDS011;23740;51.550;6.846;2023-06-24T09:38:42;6.32;;;4.97;;
37907;SDS011;23740;51.550;6.846;2023-06-24T09:41:11;5.53;;;5.03;;
37907;SDS011;23740;51.550;6.846;2023-06-24T09:43:41;4.07;;;3.47;;
37907;SDS011;23740;51.550;6.846;2023-06-24T09:46:11;6.10;;;5.50;;
37907;SDS011;23740;51.550;6.846;2023-06-24T09:48:39;5.97;;;5.03;;
37907;SDS011;23740;51.550;6.846;2023-06-24T09:51:08;5.90;;;4.90;;
37907;SDS011;23740;51.550;6.846;2023-06-24T09:53:36;4.50;;;4.10;;
37907;SDS011;23740;51.550;6.846;2023-06-24T09:56:05;5.45;;;4.63;;
37907;SDS011;23740;51.550;6.846;2023-06-24T09:58:35;5.40;;;5.00;;
37907;SDS011;23740;51.550;6.846;2023-06-24T10:01:04;4.70;;;4.30;;
37907;SDS011;23740;51.550;6.846;2023-06-24T10:03:33;4.38;;;3.72;;
37907;SDS011;23740;51.550;6.846;2023-06-24T10:06:03;6.70;;;3.92;;
37907;SDS011;23740;51.550;6.846;2023-06-24T10:08:33;6.85;;;4.30;;
37907;SDS011;23740;51.550;6.846;2023-06-24T10:11:01;5.03;;;4.22;;
37907;SDS011;23740;51.550;6.846;2023-06-24T10:13:29;4.55;;;4.15;;
37907;SDS011;23740;51.550;6.846;2023-06-24T10:15:57;4.55;;;4.15;;
37907;SDS011;23740;51.550;6.846;2023-06-24T10:18:32;4.00;;;3.50;;
37907;SDS011;23740;51.550;6.846;2023-06-24T10:21:01;4.78;;;4.38;;
37907;SDS011;23740;51.550;6.846;2023-06-24T10:23:29;4.53;;;4.13;;
37907;SDS011;23740;51.550;6.846;2023-06-24T10:25:59;5.78;;;5.28;;
37907;SDS011;23740;51.550;6.846;2023-06-24T10:28:35;5.68;;;4.20;;
37907;SDS011;23740;51.550;6.846;2023-06-24T10:34:39;5.72;;;4.07;;
37907;SDS011;23740;51.550;6.846;2023-06-24T10:37:08;4.38;;;3.55;;
37907;SDS011;23740;51.550;6.846;2023-06-24T10:39:38;3.78;;;3.20;;
37907;SDS011;23740;51.550;6.846;2023-06-24T10:45:02;4.38;;;3.45;;
37907;SDS011;23740;51.550;6.846;2023-06-24T10:47:41;4.03;;;3.63;;
37907;SDS011;23740;51.550;6.846;2023-06-24T10:50:10;3.95;;;3.55;;
37907;SDS011;23740;51.550;6.846;2023-06-24T10:52:39;4.57;;;3.58;;
37907;SDS011;23740;51.550;6.846;2023-06-24T10:55:07;5.22;;;3.40;;
37907;SDS011;23740;51.550;6.846;2023-06-24T10:57:37;3.38;;;3.08;;
37907;SDS011;23740;51.550;6.846;2023-06-24T11:00:05;4.13;;;3.50;;
37907;SDS011;23740;51.550;6.846;2023-06-24T11:02:34;4.95;;;3.80;;
37907;SDS011;23740;51.550;6.846;2023-06-24T11:05:03;4.05;;;3.17;;
37907;SDS011;23740;51.550;6.846;2023-06-24T11:07:32;8.63;;;6.53;;
37907;SDS011;23740;51.550;6.846;2023-06-24T11:10:03;4.78;;;2.80;;
37907;SDS011;23740;51.550;6.846;2023-06-24T11:12:38;5.68;;;3.80;;
37907;SDS011;23740;51.550;6.846;2023-06-24T11:15:07;4.15;;;3.75;;
37907;SDS011;23740;51.550;6.846;2023-06-24T11:17:36;4.65;;;4.07;;
37907;SDS011;23740;51.550;6.846;2023-06-24T11:20:06;3.13;;;2.63;;
37907;SDS011;23740;51.550;6.846;2023-06-24T11:22:38;3.53;;;3.22;;
37907;SDS011;23740;51.550;6.846;2023-06-24T11:25:12;4.70;;;4.20;;
37907;SDS011;23740;51.550;6.846;2023-06-24T11:27:43;3.47;;;3.17;;
37907;SDS011;23740;51.550;6.846;2023-06-24T11:30:11;4.15;;;3.10;;
37907;SDS011;23740;51.550;6.846;2023-06-24T11:32:41;4.55;;;3.92;;
37907;SDS011;23740;51.550;6.846;2023-06-24T11:35:10;3.60;;;3.20;;
37907;SDS011;23740;51.550;6.846;2023-06-24T11:37:41;3.38;;;3.00;;
37907;SDS011;23740;51.550;6.846;2023-06-24T11:40:10;7.03;;;6.38;;
37907;SDS011;23740;51.550;6.846;2023-06-24T11:42:40;4.35;;;3.92;;
37907;SDS011;23740;51.550;6.846;2023-06-24T11:45:12;4.32;;;3.83;;
37907;SDS011;23740;51.550;6.846;2023-06-24T11:47:42;5.47;;;3.70;;
37907;SDS011;23740;51.550;6.846;2023-06-24T11:50:10;4.20;;;3.80;;
37907;SDS011;23740;51.550;6.846;2023-06-24T11:52:39;4.18;;;3.70;;
37907;SDS011;23740;51.550;6.846;2023-06-24T11:55:16;3.67;;;3.17;;
37907;SDS011;23740;51.550;6.846;2023-06-24T11:57:51;4.00;;;3.70;;
37907;SDS011;23740;51.550;6.846;2023-06-24T12:00:22;3.72;;;3.40;;
37907;SDS011;23740;51.550;6.846;2023-06-24T12:02:52;8.13;;;7.30;;
37907;SDS011;23740;51.550;6.846;2023-06-24T12:05:24;7.00;;;5.30;;
37907;SDS011;23740;51.550;6.846;2023-06-24T12:07:59;11.23;;;10.05;;
37907;SDS011;23740;51.550;6.846;2023-06-24T12:10:28;10.30;;;9.55;;
37907;SDS011;23740;51.550;6.846;2023-06-24T12:12:59;4.65;;;3.70;;
37907;SDS011;23740;51.550;6.846;2023-06-24T12:15:28;3.92;;;3.60;;
37907;SDS011;23740;51.550;6.846;2023-06-24T12:17:56;3.03;;;2.83;;
37907;SDS011;23740;51.550;6.846;2023-06-24T12:20:25;4.25;;;3.70;;
37907;SDS011;23740;51.550;6.846;2023-06-24T12:22:56;7.45;;;3.80;;
37907;SDS011;23740;51.550;6.846;2023-06-24T12:25:24;3.97;;;3.53;;
37907;SDS011;23740;51.550;6.846;2023-06-24T12:27:51;5.63;;;5.18;;
37907;SDS011;23740;51.550;6.846;2023-06-24T12:30:19;4.85;;;4.40;;
37907;SDS011;23740;51.550;6.846;2023-06-24T12:32:50;4.05;;;3.75;;
37907;SDS011;23740;51.550;6.846;2023-06-24T12:35:18;14.30;;;11.85;;
37907;SDS011;23740;51.550;6.846;2023-06-24T12:37:46;4.45;;;4.05;;
37907;SDS011;23740;51.550;6.846;2023-06-24T12:40:15;4.00;;;3.50;;
37907;SDS011;23740;51.550;6.846;2023-06-24T12:42:43;4.25;;;3.95;;
37907;SDS011;23740;51.550;6.846;2023-06-24T12:45:11;3.33;;;3.10;;
37907;SDS011;23740;51.550;6.846;2023-06-24T12:47:39;3.40;;;3.10;;
37907;SDS011;23740;51.550;6.846;2023-06-24T12:50:09;3.35;;;3.15;;
37907;SDS011;23740;51.550;6.846;2023-06-24T12:55:07;4.53;;;3.17;;
37907;SDS011;23740;51.550;6.846;2023-06-24T12:57:36;3.25;;;2.95;;
37907;SDS011;23740;51.550;6.846;2023-06-24T13:00:04;4.95;;;2.92;;
37907;SDS011;23740;51.550;6.846;2023-06-24T13:02:33;3.78;;;3.47;;
37907;SDS011;23740;51.550;6.846;2023-06-24T13:05:01;3.83;;;3.50;;
37907;SDS011;23740;51.550;6.846;2023-06-24T13:07:31;3.65;;;3.10;;
37907;SDS011;23740;51.550;6.846;2023-06-24T13:09:59;3.53;;;3.22;;
37907;SDS011;23740;51.550;6.846;2023-06-24T13:12:27;3.40;;;2.72;;
37907;SDS011;23740;51.550;6.846;2023-06-24T13:14:55;3.47;;;3.15;;
37907;SDS011;23740;51.550;6.846;2023-06-24T13:17:23;3.70;;;2.95;;
37907;SDS011;23740;51.550;6.846;2023-06-24T13:19:51;2.53;;;2.33;;
37907;SDS011;23740;51.550;6.846;2023-06-24T13:22:20;2.42;;;2.22;;
37907;SDS011;23740;51.550;6.846;2023-06-24T13:24:49;3.05;;;2.85;;
37907;SDS011;23740;51.550;6.846;2023-06-24T13:27:17;3.38;;;2.55;;
37907;SDS011;23740;51.550;6.846;2023-06-24T13:29:44;2.90;;;2.60;;
37907;SDS011;23740;51.550;6.846;2023-06-24T13:32:12;2.50;;;2.30;;
37907;SDS011;23740;51.550;6.846;2023-06-24T13:34:41;3.17;;;2.97;;
37907;SDS011;23740;51.550;6.846;2023-06-24T13:37:08;3.28;;;2.30;;
37907;SDS011;23740;51.550;6.846;2023-06-24T13:39:36;3.25;;;3.05;;
37907;SDS011;23740;51.550;6.846;2023-06-24T13:42:06;2.70;;;2.40;;
37907;SDS011;23740;51.550;6.846;2023-06-24T13:44:34;3.30;;;3.00;;
37907;SDS011;23740;51.550;6.846;2023-06-24T13:47:02;3.20;;;2.90;;
37907;SDS011;23740;51.550;6.846;2023-06-24T13:49:30;3.35;;;3.00;;
37907;SDS011;23740;51.550;6.846;2023-06-24T13:51:58;3.30;;;2.70;;
37907;SDS011;23740;51.550;6.846;2023-06-24T13:54:26;3.50;;;2.83;;
37907;SDS011;23740;51.550;6.846;2023-06-24T13:59:27;4.05;;;3.50;;
37907;SDS011;23740;51.550;6.846;2023-06-24T14:01:55;2.90;;;2.60;;
37907;SDS011;23740;51.550;6.846;2023-06-24T14:04:23;3.17;;;2.45;;
37907;SDS011;23740;51.550;6.846;2023-06-24T14:06:51;2.78;;;2.55;;
37907;SDS011;23740;51.550;6.846;2023-06-24T14:09:20;3.38;;;2.47;;
37907;SDS011;23740;51.550;6.846;2023-06-24T14:11:47;3.80;;;3.50;;
37907;SDS011;23740;51.550;6.846;2023-06-24T14:14:15;3.97;;;3.35;;
37907;SDS011;23740;51.550;6.846;2023-06-24T14:16:44;3.55;;;3.25;;
37907;SDS011;23740;51.550;6.846;2023-06-24T14:19:12;3.28;;;2.72;;
37907;SDS011;23740;51.550;6.846;2023-06-24T14:21:41;3.45;;;2.90;;
37907;SDS011;23740;51.550;6.846;2023-06-24T14:24:08;2.80;;;2.60;;
37907;SDS011;23740;51.550;6.846;2023-06-24T14:26:42;2.75;;;2.55;;
37907;SDS011;23740;51.550;6.846;2023-06-24T14:29:09;4.00;;;3.70;;
37907;SDS011;23740;51.550;6.846;2023-06-24T14:31:37;2.55;;;2.35;;
37907;SDS011;23740;51.550;6.846;2023-06-24T14:34:06;2.78;;;2.40;;
37907;SDS011;23740;51.550;6.846;2023-06-24T14:36:34;3.47;;;3.17;;
37907;SDS011;23740;51.550;6.846;2023-06-24T14:39:02;3.33;;;3.10;;
37907;SDS011;23740;51.550;6.846;2023-06-24T14:41:30;3.78;;;3.47;;
37907;SDS011;23740;51.550;6.846;2023-06-24T14:43:58;3.15;;;2.80;;
37907;SDS011;23740;51.550;6.846;2023-06-24T14:46:26;3.33;;;2.67;;
37907;SDS011;23740;51.550;6.846;2023-06-24T14:48:54;2.97;;;2.67;;
37907;SDS011;23740;51.550;6.846;2023-06-24T14:51:23;3.97;;;2.88;;
37907;SDS011;23740;51.550;6.846;2023-06-24T14:53:53;2.83;;;2.53;;
37907;SDS011;23740;51.550;6.846;2023-06-24T14:56:22;3.33;;;3.03;;
37907;SDS011;23740;51.550;6.846;2023-06-24T14:58:50;3.38;;;3.08;;
37907;SDS011;23740;51.550;6.846;2023-06-24T15:01:18;3.50;;;3.20;;
37907;SDS011;23740;51.550;6.846;2023-06-24T15:03:46;3.15;;;2.95;;
37907;SDS011;23740;51.550;6.846;2023-06-24T15:06:14;3.40;;;3.10;;